Date,TemperatureHighF,TemperatureAvgF,TemperatureLowF,DewpointHighF,DewpointAvgF,DewpointLowF,HumidityHigh,HumidityAvg,HumidityLow,PressureMaxIn,PressureMinIn,WindSpeedMaxMPH,WindSpeedAvgMPH,GustSpeedMaxMPH,PrecipitationSumIn
2013-3-1,41.9,38.9,34.8,26.7,24.3,20.8,60,55,51,29.92,29.77,16,4,16,0.00
2013-3-2,38.3,34.5,32.7,24.6,20.1,16.6,62,55,51,29.92,29.83,13,3,13,0.00
2013-3-3,41.3,33.0,25.5,19.7,16.0,11.3,61,49,40,29.96,29.82,18,5,18,0.00
2013-3-4,48.0,34.5,25.7,17.0,12.2,9.8,52,41,25,30.06,29.95,21,5,21,0.00
2013-3-5,53.4,40.7,30.0,29.7,22.8,12.7,81,50,34,30.07,29.75,17,3,17,0.00
2013-3-6,33.6,32.1,31.6,29.7,28.4,27.2,88,86,81,29.75,29.61,13,0,13,0.00
2013-3-12,52.3,45.9,42.4,31.8,29.3,27.5,56,52,44,29.98,29.89,20,8,20,0.00
2013-3-13,49.2,40.6,32.9,30.3,23.2,14.5,69,51,34,30.12,29.92,21,6,21,0.00
2013-3-14,47.1,37.6,29.1,18.5,15.4,12.3,51,41,29,30.19,30.06,20,6,20,0.00
2013-3-15,60.4,44.5,28.9,35.8,24.8,13.3,59,46,38,30.13,29.81,15,2,15,0.00
2013-3-16,66.5,51.7,42.9,52.5,41.6,30.7,83,68,52,29.90,29.64,16,3,16,0.00
2013-3-17,43.8,37.7,33.0,38.2,32.9,28.8,85,82,79,30.27,29.89,11,2,11,0.00
2013-3-18,34.7,32.9,31.8,30.2,28.7,27.9,86,84,82,30.29,29.90,5,0,5,0.00
2013-3-19,57.5,43.2,32.1,40.3,25.1,7.7,88,57,19,29.98,29.76,37,6,37,0.00
2013-3-20,52.8,43.2,32.5,20.9,14.2,8.3,42,31,23,30.04,29.78,20,6,20,0.00
2013-3-21,40.6,33.0,26.4,25.9,13.8,7.1,63,46,34,29.95,29.79,25,6,25,0.00
2013-3-22,49.1,35.8,23.5,20.4,14.5,7.9,55,42,30,30.00,29.88,16,5,16,0.00
2013-3-23,56.3,41.7,27.6,25.3,18.9,13.8,58,41,27,30.06,29.90,13,3,13,0.00
2013-3-24,40.8,35.3,31.8,27.1,22.7,18.0,80,61,46,30.01,29.65,14,2,14,0.00
2013-3-25,42.9,35.9,30.9,34.0,29.5,25.9,84,77,70,29.73,29.54,7,1,7,0.00
2013-3-26,46.2,39.5,32.1,29.6,26.3,24.6,74,59,45,30.07,29.73,15,4,15,0.00
2013-3-27,46.5,40.4,33.9,26.6,23.8,21.5,64,52,40,30.18,30.05,25,6,25,0.00
2013-3-28,47.8,41.3,35.7,26.5,23.9,21.7,60,50,40,30.27,30.13,26,6,26,0.00
2013-3-29,57.7,44.1,29.8,33.9,26.5,22.2,73,52,32,30.29,30.15,14,3,14,0.00
2013-3-30,61.3,47.0,31.8,35.3,28.0,22.6,70,49,31,30.25,30.09,16,5,16,0.00
2013-3-31,55.4,46.6,40.6,46.4,37.5,28.0,82,70,54,30.11,29.77,7,2,7,0.00